createdAt,value
2018-09-13T00:00:25.304Z,14.10
2018-09-13T00:02:54.420Z,14.10
2018-09-13T00:05:22.914Z,14.00
2018-09-13T00:07:51.374Z,13.90
2018-09-13T00:10:19.806Z,13.80
2018-09-13T00:12:49.135Z,13.90
2018-09-13T00:15:18.940Z,13.80
2018-09-13T00:17:47.469Z,13.80
2018-09-13T00:20:16.714Z,13.70
2018-09-13T00:22:45.255Z,13.60
2018-09-13T00:25:15.053Z,13.60
2018-09-13T00:27:43.538Z,13.50
2018-09-13T00:30:11.973Z,13.40
2018-09-13T00:32:40.458Z,13.40
2018-09-13T00:35:09.122Z,13.40
2018-09-13T00:37:37.636Z,13.40
2018-09-13T00:40:06.584Z,13.40
2018-09-13T00:42:35.064Z,13.30
2018-09-13T00:45:03.630Z,13.30
2018-09-13T00:47:32.776Z,13.30
2018-09-13T00:50:01.281Z,13.20
2018-09-13T00:52:30.383Z,13.20
2018-09-13T00:54:58.870Z,13.10
2018-09-13T00:57:27.404Z,13.20
2018-09-13T00:59:55.847Z,13.20
2018-09-13T01:02:25.125Z,13.10
2018-09-13T01:04:53.682Z,13.10
2018-09-13T01:07:22.722Z,13.10
2018-09-13T01:09:52.879Z,13.20
2018-09-13T01:12:22.083Z,13.30
2018-09-13T01:14:51.181Z,13.20
2018-09-13T01:17:19.622Z,13.30
2018-09-13T01:19:48.839Z,13.30
2018-09-13T01:22:17.637Z,13.40
2018-09-13T01:24:46.087Z,13.40
2018-09-13T01:27:15.208Z,13.40
2018-09-13T01:29:43.674Z,13.40
2018-09-13T01:32:12.111Z,13.30
2018-09-13T01:34:40.704Z,13.30
2018-09-13T01:37:09.150Z,13.40
2018-09-13T01:39:37.638Z,13.30
2018-09-13T01:42:06.111Z,13.30
2018-09-13T01:44:34.605Z,13.30
2018-09-13T01:47:03.080Z,13.30
2018-09-13T01:49:31.514Z,13.30
2018-09-13T01:51:59.971Z,13.30
2018-09-13T01:54:28.528Z,13.30
2018-09-13T01:56:57.977Z,13.30
2018-09-13T01:59:26.430Z,13.30
2018-09-13T02:01:54.909Z,13.30
2018-09-13T02:04:24.111Z,13.30
2018-09-13T02:06:52.701Z,13.30
2018-09-13T02:09:21.341Z,13.40
2018-09-13T02:11:49.807Z,13.40
2018-09-13T02:14:18.424Z,13.40
2018-09-13T02:16:46.975Z,13.30
2018-09-13T02:19:16.186Z,13.30
2018-09-13T02:21:44.763Z,13.40
2018-09-13T02:24:13.813Z,13.40
2018-09-13T02:26:42.979Z,13.30
2018-09-13T02:29:11.455Z,13.30
2018-09-13T02:31:40.386Z,13.30
2018-09-13T02:34:08.852Z,13.30
2018-09-13T02:36:37.339Z,13.30
2018-09-13T02:39:07.885Z,13.20
2018-09-13T02:41:36.368Z,13.20
2018-09-13T02:44:05.550Z,13.30
2018-09-13T02:46:34.070Z,13.30
2018-09-13T02:49:02.574Z,13.30
2018-09-13T02:51:31.072Z,13.40
2018-09-13T02:54:00.345Z,13.40
2018-09-13T02:56:28.845Z,13.30
2018-09-13T02:58:57.320Z,13.30
2018-09-13T03:01:25.995Z,13.40
2018-09-13T03:03:54.442Z,13.40
2018-09-13T03:06:23.630Z,13.40
2018-09-13T03:08:52.822Z,13.30
2018-09-13T03:11:21.281Z,13.30
2018-09-13T03:13:49.992Z,13.30
2018-09-13T03:16:19.224Z,13.20
2018-09-13T03:18:47.683Z,13.20
2018-09-13T03:21:16.121Z,13.20
2018-09-13T03:23:44.611Z,13.20
2018-09-13T03:26:13.796Z,13.20
2018-09-13T03:28:42.369Z,13.20
2018-09-13T03:31:10.794Z,13.30
2018-09-13T03:33:39.443Z,13.20
2018-09-13T03:36:08.431Z,13.20
2018-09-13T03:38:36.903Z,13.30
2018-09-13T03:41:06.071Z,13.30
2018-09-13T03:43:35.275Z,13.30
2018-09-13T03:46:03.753Z,13.30
2018-09-13T03:48:32.385Z,13.30
2018-09-13T03:51:00.922Z,13.30
2018-09-13T03:53:29.474Z,13.30
2018-09-13T03:55:58.116Z,13.30
2018-09-13T03:58:26.677Z,13.30
2018-09-13T04:00:55.209Z,13.20
2018-09-13T04:03:23.723Z,13.30
2018-09-13T04:05:52.350Z,13.30
2018-09-13T04:08:21.008Z,13.30
2018-09-13T04:10:49.564Z,13.30
2018-09-13T04:13:18.086Z,13.30
2018-09-13T04:15:47.789Z,13.20
2018-09-13T04:18:16.260Z,13.20
2018-09-13T04:20:44.714Z,13.20
2018-09-13T04:23:13.163Z,13.20
2018-09-13T04:25:41.664Z,13.20
2018-09-13T04:28:10.181Z,13.20
2018-09-13T04:30:38.588Z,13.20
2018-09-13T04:33:13.844Z,13.20
2018-09-13T04:35:42.448Z,13.20
2018-09-13T04:38:10.976Z,13.20
2018-09-13T04:40:39.406Z,13.20
2018-09-13T04:43:08.363Z,13.20
2018-09-13T04:45:36.779Z,13.20
2018-09-13T04:48:05.981Z,13.20
2018-09-13T04:50:34.442Z,13.10
2018-09-13T04:53:02.954Z,13.10
2018-09-13T04:55:31.418Z,13.10
2018-09-13T04:57:59.907Z,13.10
2018-09-13T05:00:29.069Z,13.10
2018-09-13T05:02:57.546Z,13.10
2018-09-13T05:05:26.000Z,13.20
2018-09-13T05:07:55.222Z,13.10
2018-09-13T05:10:23.737Z,13.10
2018-09-13T05:12:52.798Z,13.20
2018-09-13T05:15:21.243Z,13.20
2018-09-13T05:17:49.813Z,13.20
2018-09-13T05:20:18.295Z,13.20
2018-09-13T05:22:46.775Z,13.20
2018-09-13T05:25:15.267Z,13.20
2018-09-13T05:27:43.692Z,13.20
2018-09-13T05:30:12.261Z,13.30
2018-09-13T05:32:41.767Z,13.30
2018-09-13T05:35:10.379Z,13.30
2018-09-13T05:37:39.763Z,13.30
2018-09-13T05:40:08.305Z,13.20
2018-09-13T05:42:36.861Z,13.20
2018-09-13T05:45:06.375Z,13.20
2018-09-13T05:47:34.884Z,13.20
2018-09-13T05:50:05.085Z,13.30
2018-09-13T05:52:33.693Z,13.40
2018-09-13T05:55:02.180Z,13.40
2018-09-13T05:57:30.775Z,13.40
2018-09-13T05:59:59.226Z,13.50
2018-09-13T06:02:27.804Z,13.60
2018-09-13T06:04:56.325Z,13.60
2018-09-13T06:07:24.980Z,13.50
2018-09-13T06:09:54.344Z,13.60
2018-09-13T06:12:22.889Z,13.70
2018-09-13T06:14:51.531Z,13.80
2018-09-13T06:17:24.224Z,13.90
2018-09-13T06:19:52.771Z,14.10
2018-09-13T06:22:21.243Z,14.30
2018-09-13T06:24:49.751Z,14.40
2018-09-13T06:27:18.341Z,14.40
2018-09-13T06:29:47.622Z,14.40
2018-09-13T06:32:16.190Z,14.50
2018-09-13T06:34:44.762Z,14.40
2018-09-13T06:37:13.598Z,14.40
2018-09-13T06:39:43.466Z,14.50
2018-09-13T06:42:12.193Z,14.50
2018-09-13T06:44:40.761Z,14.50
2018-09-13T06:47:09.236Z,14.70
2018-09-13T06:49:37.844Z,14.80
2018-09-13T06:52:06.471Z,14.80
2018-09-13T06:54:35.040Z,15.00
2018-09-13T06:57:03.621Z,15.10
2018-09-13T06:59:33.117Z,15.40
2018-09-13T07:02:01.619Z,15.40
2018-09-13T07:04:30.356Z,15.50
2018-09-13T07:06:58.977Z,15.40
2018-09-13T07:09:28.521Z,15.50
2018-09-13T07:11:57.212Z,15.60
2018-09-13T07:14:25.709Z,15.60
2018-09-13T07:16:55.331Z,15.40
2018-09-13T07:19:24.854Z,15.60
2018-09-13T07:21:58.197Z,15.70
2018-09-13T07:24:26.850Z,15.70
2018-09-13T07:26:55.442Z,15.70
2018-09-13T07:29:24.004Z,15.60
2018-09-13T07:31:52.537Z,15.50
2018-09-13T07:34:21.055Z,15.40
2018-09-13T07:36:49.756Z,15.50
2018-09-13T07:39:18.319Z,15.60
2018-09-13T07:41:49.239Z,15.70
2018-09-13T11:23:37.106Z,21.30
2018-09-13T11:26:05.689Z,21.40
2018-09-13T11:28:34.239Z,21.70
2018-09-13T11:31:04.384Z,22.10
2018-09-13T11:33:34.089Z,22.40
2018-09-13T11:36:02.517Z,22.50
2018-09-13T11:38:31.247Z,22.50
2018-09-13T11:40:59.824Z,22.30
2018-09-13T11:43:28.958Z,22.20
2018-09-13T11:45:57.511Z,21.60
2018-09-13T11:48:26.052Z,21.80
2018-09-13T11:50:54.524Z,21.90
2018-09-13T11:53:23.041Z,22.00
2018-09-13T11:55:51.615Z,21.50
2018-09-13T11:58:20.177Z,21.20
2018-09-13T12:00:48.824Z,21.40
2018-09-13T12:03:17.398Z,21.20
2018-09-13T12:05:46.324Z,21.10
2018-09-13T12:08:14.824Z,20.90
2018-09-13T12:10:43.375Z,21.20
2018-09-13T12:13:12.593Z,21.40
2018-09-13T12:15:41.076Z,21.30
2018-09-13T12:18:09.663Z,21.30
2018-09-13T12:20:39.088Z,21.40
2018-09-13T12:23:07.603Z,21.40
2018-09-13T12:25:36.087Z,21.60
2018-09-13T12:28:04.665Z,22.00
2018-09-13T12:30:33.198Z,22.40
2018-09-13T12:33:01.726Z,22.60
2018-09-13T12:35:30.263Z,22.70
2018-09-13T12:38:00.019Z,22.50
2018-09-13T12:40:28.631Z,21.90
2018-09-13T12:42:57.894Z,21.30
2018-09-13T12:45:26.538Z,21.00
2018-09-13T12:48:11.521Z,21.20
2018-09-13T12:50:40.821Z,21.30
2018-09-13T12:53:09.397Z,21.80
2018-09-13T12:55:43.101Z,22.20
2018-09-13T12:58:11.610Z,22.70
2018-09-13T13:00:41.071Z,22.80
2018-09-13T13:03:09.584Z,22.30
2018-09-13T13:05:38.074Z,22.10
2018-09-13T13:08:06.526Z,21.50
2018-09-13T13:10:35.058Z,20.90
2018-09-13T13:13:04.253Z,20.70
2018-09-13T13:15:33.125Z,20.50
2018-09-13T13:18:01.875Z,20.50
2018-09-13T13:20:30.360Z,20.30
2018-09-13T13:22:59.412Z,20.70
2018-09-13T13:25:27.903Z,20.90
2018-09-13T13:27:56.491Z,21.10
2018-09-13T13:30:25.356Z,21.30
2018-09-13T13:32:53.960Z,21.60
2018-09-13T13:35:22.450Z,21.80
2018-09-13T13:37:51.144Z,22.00
2018-09-13T13:40:19.911Z,22.10
2018-09-13T13:42:48.368Z,22.20
2018-09-13T13:45:17.434Z,22.20
2018-09-13T13:47:46.002Z,22.20
2018-09-13T13:50:15.055Z,22.30
2018-09-13T13:52:43.474Z,22.40
2018-09-13T13:55:12.060Z,22.30
2018-09-13T13:57:40.586Z,22.20
2018-09-13T14:00:09.130Z,22.10
2018-09-13T14:02:37.606Z,21.90
2018-09-13T14:05:06.394Z,21.10
2018-09-13T14:07:34.926Z,21.00
2018-09-13T14:10:03.508Z,20.60
2018-09-13T14:12:31.960Z,20.60
2018-09-13T14:15:01.243Z,20.90
2018-09-13T14:17:29.820Z,21.30
2018-09-13T14:19:58.766Z,21.60
2018-09-13T14:22:27.323Z,21.90
2018-09-13T14:24:55.852Z,22.00
2018-09-13T14:27:24.335Z,21.90
2018-09-13T14:29:53.473Z,21.90
2018-09-13T14:32:21.898Z,21.80
2018-09-13T14:34:50.403Z,21.60
2018-09-13T14:37:18.945Z,21.30
2018-09-13T14:39:47.526Z,20.90
2018-09-13T14:42:15.998Z,20.50
2018-09-13T14:44:44.464Z,20.00
2018-09-13T14:47:13.372Z,19.90
2018-09-13T14:49:41.879Z,20.10
2018-09-13T14:52:10.344Z,20.30
2018-09-13T14:54:38.847Z,20.50
2018-09-13T14:57:08.680Z,20.80
2018-09-13T14:59:37.205Z,21.00
2018-09-13T15:02:05.650Z,21.20
2018-09-13T15:04:34.812Z,21.40
2018-09-13T15:07:03.293Z,21.50
2018-09-13T15:09:31.793Z,21.60
2018-09-13T15:12:00.234Z,21.60
2018-09-13T15:14:28.720Z,21.60
2018-09-13T15:16:57.182Z,21.60
2018-09-13T15:19:26.436Z,21.50
2018-09-13T15:21:54.889Z,21.60
2018-09-13T15:24:24.033Z,21.60
2018-09-13T15:26:52.427Z,21.70
2018-09-13T15:29:20.927Z,21.50
2018-09-13T15:31:49.391Z,21.60
2018-09-13T15:34:18.021Z,21.60
2018-09-13T15:36:46.545Z,21.60
2018-09-13T15:39:15.019Z,21.30
2018-09-13T15:41:43.553Z,21.40
2018-09-13T15:44:12.101Z,21.40
2018-09-13T15:46:40.710Z,21.30
2018-09-13T15:49:09.311Z,21.30
2018-09-13T15:51:38.207Z,21.30
2018-09-13T15:54:06.709Z,21.20
2018-09-13T15:56:35.316Z,21.30
2018-09-13T15:59:04.503Z,21.40
2018-09-13T16:01:33.000Z,21.40
2018-09-13T16:04:02.210Z,21.40
2018-09-13T16:06:30.780Z,21.50
2018-09-13T16:08:59.313Z,21.50
2018-09-13T16:11:27.766Z,21.30
2018-09-13T16:13:56.251Z,21.20
2018-09-13T16:16:24.704Z,20.90
2018-09-13T16:18:53.206Z,20.80
2018-09-13T16:21:21.782Z,20.50
2018-09-13T16:23:50.988Z,20.30
2018-09-13T16:26:19.521Z,20.00
2018-09-13T16:28:48.836Z,19.70
2018-09-13T16:31:17.433Z,19.40
2018-09-13T16:33:45.957Z,19.10
2018-09-13T16:36:25.393Z,18.90
2018-09-13T16:38:59.237Z,18.80
2018-09-13T16:41:32.832Z,18.60
2018-09-13T16:44:04.583Z,18.50
2018-09-13T16:46:38.439Z,18.30
2018-09-13T16:49:07.698Z,18.20
2018-09-13T16:51:36.677Z,18.10
2018-09-13T16:54:05.547Z,18.10
2018-09-13T16:56:34.048Z,18.00
2018-09-13T16:59:02.524Z,17.90
2018-09-13T17:01:31.061Z,17.80
2018-09-13T17:03:59.510Z,17.70
2018-09-13T17:06:28.228Z,17.60
2018-09-13T17:08:56.694Z,17.40
2018-09-13T17:11:26.901Z,17.30
2018-09-13T17:13:55.386Z,17.10
2018-09-13T17:16:23.931Z,17.00
2018-09-13T17:18:52.422Z,16.80
2018-09-13T17:21:21.360Z,16.70
2018-09-13T17:23:49.828Z,16.60
2018-09-13T17:26:19.042Z,16.50
2018-09-13T17:28:47.623Z,16.40
2018-09-13T17:31:16.155Z,16.20
2018-09-13T17:33:44.755Z,16.10
2018-09-13T17:36:13.180Z,15.90
2018-09-13T17:38:41.651Z,15.80
2018-09-13T17:41:10.166Z,15.70
2018-09-13T17:43:38.644Z,15.60
2018-09-13T17:46:07.159Z,15.50
2018-09-13T17:48:35.637Z,15.50
2018-09-13T17:51:04.976Z,15.40
2018-09-13T17:53:33.528Z,15.30
2018-09-13T17:56:02.144Z,15.30
2018-09-13T17:58:30.625Z,15.20
2018-09-13T18:00:59.209Z,15.20
2018-09-13T18:03:28.390Z,15.20
2018-09-13T18:05:57.661Z,15.20
2018-09-13T18:08:26.117Z,15.10
2018-09-13T18:10:54.629Z,15.00
2018-09-13T18:13:23.193Z,15.00
2018-09-13T18:15:51.779Z,14.90
2018-09-13T18:18:20.345Z,14.70
2018-09-13T18:20:48.893Z,14.60
2018-09-13T18:23:17.371Z,14.50
2018-09-13T18:25:45.803Z,14.40
2018-09-13T18:28:14.317Z,14.30
2018-09-13T18:30:42.878Z,14.10
2018-09-13T18:33:12.248Z,14.00
2018-09-13T18:35:40.724Z,13.90
2018-09-13T18:38:09.205Z,13.70
2018-09-13T18:40:37.810Z,13.60
2018-09-13T18:43:06.324Z,13.50
2018-09-13T18:45:34.938Z,13.40
2018-09-13T18:48:03.445Z,13.30
2018-09-13T18:50:32.650Z,13.20
2018-09-13T18:53:01.730Z,13.10
2018-09-13T18:55:30.228Z,13.00
2018-09-13T18:57:58.710Z,13.00
2018-09-13T19:00:27.250Z,12.90
2018-09-13T19:02:55.791Z,12.90
2018-09-13T19:05:24.341Z,12.80
2018-09-13T19:07:52.816Z,12.80
2018-09-13T19:10:21.273Z,12.70
2018-09-13T19:12:50.350Z,12.70
2018-09-13T19:15:19.458Z,12.60
2018-09-13T19:17:48.063Z,12.60
2018-09-13T19:20:16.516Z,12.50
2018-09-13T19:22:45.146Z,12.50
2018-09-13T19:25:13.705Z,12.50
2018-09-13T19:27:42.382Z,12.40
2018-09-13T19:30:10.871Z,12.40
2018-09-13T19:32:39.396Z,12.30
2018-09-13T19:35:07.925Z,12.30
2018-09-13T19:37:36.546Z,12.20
2018-09-13T19:40:05.960Z,12.20
2018-09-13T19:42:34.482Z,12.20
2018-09-13T19:45:03.014Z,12.20
2018-09-13T19:47:32.256Z,12.20
2018-09-13T19:50:01.504Z,12.10
2018-09-13T19:52:30.022Z,12.10
2018-09-13T19:54:58.554Z,12.20
2018-09-13T19:57:27.071Z,12.20
2018-09-13T19:59:55.528Z,12.20
2018-09-13T20:02:24.021Z,12.20
2018-09-13T20:04:52.575Z,12.20
2018-09-13T20:07:21.101Z,12.10
2018-09-13T20:09:49.688Z,12.10
2018-09-13T20:12:18.242Z,12.10
2018-09-13T20:14:46.653Z,12.10
2018-09-13T20:17:15.834Z,12.00
2018-09-13T20:19:44.497Z,11.90
2018-09-13T20:22:13.547Z,11.90
2018-09-13T20:24:42.061Z,11.80
2018-09-13T20:27:10.558Z,11.80
2018-09-13T20:29:39.118Z,11.70
2018-09-13T20:32:07.647Z,11.60
2018-09-13T20:34:36.155Z,11.60
2018-09-13T20:37:04.889Z,11.60
2018-09-13T20:39:34.300Z,11.50
2018-09-13T20:42:02.842Z,11.40
2018-09-13T20:44:31.930Z,11.40
2018-09-13T20:47:00.499Z,11.30
2018-09-13T20:49:29.697Z,11.30
2018-09-13T20:51:58.228Z,11.20
2018-09-13T20:54:26.690Z,11.10
2018-09-13T20:56:55.206Z,11.10
2018-09-13T20:59:23.704Z,11.00
2018-09-13T21:01:52.943Z,11.00
2018-09-13T21:04:22.081Z,11.00
2018-09-13T21:06:51.142Z,10.90
2018-09-13T21:09:19.596Z,10.90
2018-09-13T21:11:48.143Z,10.80
2018-09-13T21:14:17.245Z,10.80
2018-09-13T21:16:45.689Z,10.70
2018-09-13T21:19:14.154Z,10.70
2018-09-13T21:21:42.696Z,10.70
2018-09-13T21:24:11.290Z,10.70
2018-09-13T21:26:39.738Z,10.70
2018-09-13T21:29:08.174Z,10.60
2018-09-13T21:31:36.675Z,10.70
2018-09-13T21:34:05.263Z,10.70
2018-09-13T21:36:33.745Z,10.70
2018-09-13T21:39:02.985Z,10.70
2018-09-13T21:41:31.577Z,10.70
2018-09-13T21:44:00.020Z,10.70
2018-09-13T21:46:28.526Z,10.60
2018-09-13T21:48:56.961Z,10.60
2018-09-13T21:51:26.109Z,10.60
2018-09-13T21:53:54.663Z,10.50
2018-09-13T21:56:23.739Z,10.40
2018-09-13T21:58:52.309Z,10.40
2018-09-13T22:01:20.780Z,10.40
2018-09-13T22:03:49.327Z,10.30
2018-09-13T22:06:17.775Z,10.30
2018-09-13T22:08:46.260Z,10.20
2018-09-13T22:11:15.575Z,10.20
2018-09-13T22:13:44.050Z,10.10
2018-09-13T22:16:12.503Z,10.10
2018-09-13T22:18:40.948Z,10.10
2018-09-13T22:21:09.426Z,10.20
2018-09-13T22:23:37.899Z,10.20
2018-09-13T22:26:06.448Z,10.20
2018-09-13T22:28:34.872Z,10.20
2018-09-13T22:31:03.445Z,10.20
2018-09-13T22:33:31.864Z,10.20
2018-09-13T22:36:00.466Z,10.20
2018-09-13T22:38:30.088Z,10.20
2018-09-13T22:40:58.665Z,10.20
2018-09-13T22:43:31.369Z,10.20
2018-09-13T22:45:59.867Z,10.20
2018-09-13T22:48:28.803Z,10.10
2018-09-13T22:50:57.827Z,10.10
2018-09-13T22:53:26.312Z,10.00
2018-09-13T22:55:54.790Z,10.00
2018-09-13T22:58:23.991Z,10.00
2018-09-13T23:00:56.655Z,10.10
2018-09-13T23:03:26.496Z,10.00
2018-09-13T23:05:56.062Z,10.00
2018-09-13T23:08:24.550Z,10.00
2018-09-13T23:10:53.073Z,9.90
2018-09-13T23:13:21.541Z,9.90
2018-09-13T23:15:50.172Z,9.90
2018-09-13T23:18:19.350Z,9.90
2018-09-13T23:20:49.286Z,9.80
2018-09-13T23:23:17.991Z,9.80
2018-09-13T23:25:46.436Z,9.70
2018-09-13T23:28:14.945Z,9.70
2018-09-13T23:30:43.503Z,9.60
2018-09-13T23:33:12.623Z,9.50
2018-09-13T23:35:41.244Z,9.40
2018-09-13T23:38:09.701Z,9.40
2018-09-13T23:40:38.232Z,9.30
2018-09-13T23:43:07.162Z,9.30
2018-09-13T23:45:35.604Z,9.30
2018-09-13T23:48:04.654Z,9.20
2018-09-13T23:50:33.106Z,9.20
2018-09-13T23:53:01.599Z,9.20
2018-09-13T23:55:30.130Z,9.10
2018-09-13T23:57:58.576Z,9.10
